createdAt,value
2023-02-08T00:00:00.719Z,17.90
2023-02-08T00:02:27.066Z,16.10
2023-02-08T00:04:53.394Z,15.10
2023-02-08T00:07:19.731Z,15.60
2023-02-08T00:09:46.105Z,16.17
2023-02-08T00:12:12.417Z,15.82
2023-02-08T00:14:38.713Z,15.02
2023-02-08T00:17:05.041Z,15.43
2023-02-08T00:19:31.364Z,14.48
2023-02-08T00:21:57.663Z,13.68
2023-02-08T00:24:23.980Z,14.60
2023-02-08T00:26:50.323Z,15.05
2023-02-08T00:29:16.645Z,13.38
2023-02-08T00:31:43.065Z,14.13
2023-02-08T00:34:09.541Z,14.32
2023-02-08T00:36:35.921Z,13.93
2023-02-08T00:39:02.356Z,13.18
2023-02-08T00:41:28.664Z,12.70
2023-02-08T00:43:54.997Z,12.90
2023-02-08T00:46:21.586Z,13.82
2023-02-08T00:48:49.516Z,13.13
2023-02-08T00:51:15.858Z,14.63
2023-02-08T00:53:45.008Z,14.38
2023-02-08T00:56:13.318Z,14.80
2023-02-08T00:58:40.065Z,13.50
2023-02-08T01:01:07.413Z,14.43
2023-02-08T01:03:39.392Z,14.98
2023-02-08T01:06:09.053Z,13.73
2023-02-08T01:08:35.832Z,13.90
2023-02-08T01:11:04.461Z,14.95
2023-02-08T01:13:30.916Z,14.85
2023-02-08T01:16:06.527Z,15.88
2023-02-08T01:18:33.007Z,15.52
2023-02-08T01:21:05.732Z,16.10
2023-02-08T01:23:32.088Z,15.90
2023-02-08T01:25:58.425Z,15.60
2023-02-08T01:28:24.862Z,16.80
2023-02-08T01:30:51.317Z,15.10
2023-02-08T01:33:17.620Z,14.88
2023-02-08T01:35:43.945Z,14.32
2023-02-08T01:38:10.286Z,14.98
2023-02-08T01:40:36.631Z,14.85
2023-02-08T01:43:02.975Z,14.75
2023-02-08T01:45:31.298Z,15.25
2023-02-08T01:48:06.367Z,14.73
2023-02-08T01:50:43.427Z,15.38
2023-02-08T01:53:11.085Z,13.93
2023-02-08T01:55:44.513Z,13.20
2023-02-08T01:58:14.231Z,13.70
2023-02-08T02:00:42.143Z,14.02
2023-02-08T02:03:12.911Z,13.95
2023-02-08T02:05:43.282Z,14.20
2023-02-08T02:08:11.299Z,13.75
2023-02-08T02:10:39.571Z,13.40
2023-02-08T02:13:10.610Z,13.10
2023-02-08T02:15:36.992Z,13.68
2023-02-08T02:18:06.638Z,12.73
2023-02-08T02:20:56.816Z,14.80
2023-02-08T02:23:41.107Z,14.10
2023-02-08T02:26:29.456Z,14.88
2023-02-08T02:29:15.154Z,14.43
2023-02-08T02:32:15.587Z,13.50
2023-02-08T02:34:51.586Z,13.27
2023-02-08T02:37:18.281Z,12.90
2023-02-08T02:40:15.076Z,13.52
2023-02-08T02:43:24.443Z,13.75
2023-02-08T02:46:08.831Z,13.25
2023-02-08T02:49:02.668Z,13.27
2023-02-08T02:51:50.536Z,13.18
2023-02-08T02:54:20.840Z,14.43
2023-02-08T02:56:56.110Z,13.70
2023-02-08T02:59:22.955Z,14.00
2023-02-08T03:01:49.442Z,13.60
2023-02-08T03:04:41.817Z,15.07
2023-02-08T03:07:18.737Z,13.35
2023-02-08T03:10:20.531Z,14.18
2023-02-08T03:13:24.150Z,13.40
2023-02-08T03:16:28.312Z,14.85
2023-02-08T03:19:27.534Z,15.63
2023-02-08T03:22:03.796Z,13.18
2023-02-08T03:24:42.072Z,13.25
2023-02-08T03:27:23.125Z,13.98
2023-02-08T03:30:14.319Z,14.05
2023-02-08T03:32:50.147Z,15.45
2023-02-08T03:35:22.307Z,13.93
2023-02-08T03:38:04.435Z,15.25
2023-02-08T03:40:40.275Z,14.07
2023-02-08T03:43:16.285Z,15.57
2023-02-08T03:45:50.444Z,15.25
2023-02-08T03:48:20.181Z,15.88
2023-02-08T03:50:51.417Z,14.73
2023-02-08T03:53:21.966Z,15.10
2023-02-08T03:55:52.896Z,15.07
2023-02-08T03:58:28.200Z,15.63
2023-02-08T04:01:00.070Z,14.43
2023-02-08T04:03:29.619Z,16.02
2023-02-08T04:05:56.126Z,15.13
2023-02-08T04:08:22.974Z,14.43
2023-02-08T04:10:49.572Z,14.75
2023-02-08T04:13:16.230Z,17.33
2023-02-08T04:15:44.118Z,14.68
2023-02-08T04:18:10.773Z,15.40
2023-02-08T04:20:37.067Z,15.48
2023-02-08T04:23:03.392Z,14.52
2023-02-08T04:25:29.689Z,16.25
2023-02-08T04:27:56.006Z,16.23
2023-02-08T04:30:22.524Z,16.48
2023-02-08T04:32:49.004Z,16.85
2023-02-08T04:35:15.407Z,16.42
2023-02-08T04:37:41.737Z,15.73
2023-02-08T04:40:08.524Z,16.48
2023-02-08T04:42:35.162Z,17.77
2023-02-08T04:45:01.452Z,15.95
2023-02-08T04:47:27.803Z,17.60
2023-02-08T04:49:54.122Z,17.42
2023-02-08T04:52:20.418Z,20.20
2023-02-08T04:54:46.775Z,18.13
2023-02-08T04:57:14.313Z,17.17
2023-02-08T04:59:40.980Z,16.60
2023-02-08T05:02:07.386Z,27.40
2023-02-08T05:04:34.026Z,26.98
2023-02-08T05:07:00.353Z,39.80
2023-02-08T05:09:26.695Z,29.73
2023-02-08T05:11:53.017Z,22.00
2023-02-08T05:14:19.338Z,32.25
2023-02-08T05:16:45.688Z,38.30
2023-02-08T05:19:13.511Z,31.83
2023-02-08T05:21:39.834Z,31.98
2023-02-08T05:24:07.102Z,32.53
2023-02-08T05:26:33.545Z,25.55
2023-02-08T05:28:59.863Z,21.05
2023-02-08T05:31:26.306Z,18.95
2023-02-08T05:33:53.154Z,19.73
2023-02-08T05:36:21.100Z,20.88
2023-02-08T05:38:47.397Z,20.70
2023-02-08T05:41:13.700Z,19.30
2023-02-08T05:43:40.050Z,23.13
2023-02-08T05:46:06.351Z,21.67
2023-02-08T05:48:33.297Z,22.48
2023-02-08T05:51:00.376Z,18.40
2023-02-08T05:53:27.361Z,17.02
2023-02-08T05:55:53.739Z,16.33
2023-02-08T05:58:20.089Z,17.65
2023-02-08T06:00:46.484Z,18.23
2023-02-08T06:03:12.906Z,16.33
2023-02-08T06:05:40.704Z,17.05
2023-02-08T06:08:07.920Z,22.80
2023-02-08T06:10:35.092Z,19.83
2023-02-08T06:13:01.668Z,19.48
2023-02-08T06:15:28.095Z,18.00
2023-02-08T06:17:54.467Z,19.30
2023-02-08T06:20:20.872Z,18.65
2023-02-08T06:22:47.223Z,20.65
2023-02-08T06:25:13.527Z,21.40
2023-02-08T06:27:39.839Z,19.88
2023-02-08T06:30:06.371Z,18.65
2023-02-08T06:32:32.767Z,19.23
2023-02-08T06:34:59.197Z,19.25
2023-02-08T06:37:25.476Z,18.83
2023-02-08T06:39:51.789Z,19.30
2023-02-08T06:42:18.142Z,18.92
2023-02-08T06:44:54.430Z,20.48
2023-02-08T06:47:22.800Z,19.23
2023-02-08T06:49:49.142Z,19.80
2023-02-08T06:52:15.433Z,20.13
2023-02-08T06:54:41.820Z,19.55
2023-02-08T06:57:08.328Z,19.63
2023-02-08T06:59:35.125Z,21.38
2023-02-08T07:02:01.712Z,20.02
2023-02-08T07:04:28.164Z,19.58
2023-02-08T07:06:54.504Z,20.38
2023-02-08T07:09:20.838Z,19.17
2023-02-08T07:11:47.149Z,19.38
2023-02-08T07:14:14.900Z,18.88
2023-02-08T07:16:41.775Z,20.17
2023-02-08T07:19:08.246Z,17.50
2023-02-08T07:21:34.563Z,15.27
2023-02-08T07:24:00.864Z,15.73
2023-02-08T07:26:27.218Z,16.10
2023-02-08T07:28:53.590Z,16.00
2023-02-08T07:31:19.936Z,16.40
2023-02-08T07:33:46.306Z,17.35
2023-02-08T07:36:12.712Z,17.65
2023-02-08T07:38:39.319Z,17.48
2023-02-08T07:41:09.044Z,21.55
2023-02-08T07:43:36.962Z,19.75
2023-02-08T07:46:19.551Z,18.35
2023-02-08T07:48:46.156Z,19.17
2023-02-08T07:51:12.976Z,18.20
2023-02-08T07:53:39.481Z,18.92
2023-02-08T07:56:06.041Z,19.17
2023-02-08T07:58:32.400Z,18.38
2023-02-08T08:01:04.875Z,19.27
2023-02-08T08:03:38.850Z,18.30
2023-02-08T08:06:05.376Z,17.65
2023-02-08T08:08:31.684Z,29.20
2023-02-08T08:10:58.046Z,23.88
2023-02-08T08:13:24.330Z,25.98
2023-02-08T08:15:50.674Z,25.40
2023-02-08T08:18:17.304Z,21.90
2023-02-08T08:20:43.628Z,18.73
2023-02-08T08:23:09.923Z,21.88
2023-02-08T08:25:38.052Z,23.38
2023-02-08T08:28:05.020Z,21.55
2023-02-08T08:30:31.459Z,20.92
2023-02-08T08:32:58.077Z,19.73
2023-02-08T08:35:24.389Z,18.55
2023-02-08T08:37:50.692Z,20.63
2023-02-08T08:40:17.071Z,18.98
2023-02-08T08:42:43.445Z,19.20
2023-02-08T08:45:10.561Z,20.45
2023-02-08T08:47:36.950Z,19.60
2023-02-08T08:50:03.761Z,18.55
2023-02-08T08:52:30.178Z,19.92
2023-02-08T08:54:56.550Z,20.27
2023-02-08T08:57:22.954Z,21.23
2023-02-08T08:59:49.289Z,20.08
2023-02-08T09:02:15.678Z,20.33
2023-02-08T09:04:42.084Z,19.38
2023-02-08T09:07:10.214Z,19.10
2023-02-08T09:09:36.807Z,22.55
2023-02-08T09:12:03.637Z,20.42
2023-02-08T09:14:29.992Z,20.85
2023-02-08T09:16:56.317Z,18.13
2023-02-08T09:19:22.678Z,20.10
2023-02-08T09:21:48.964Z,20.85
2023-02-08T09:24:16.274Z,21.63
2023-02-08T09:26:42.726Z,19.48
2023-02-08T09:29:09.062Z,18.83
2023-02-08T09:31:37.796Z,20.27
2023-02-08T09:34:05.699Z,18.58
2023-02-08T09:36:34.749Z,18.40
2023-02-08T09:39:06.712Z,18.20
2023-02-08T09:42:04.057Z,18.77
2023-02-08T09:44:49.431Z,16.00
2023-02-08T09:47:36.011Z,18.83
2023-02-08T09:50:11.406Z,18.52
2023-02-08T09:52:47.304Z,15.88
2023-02-08T09:55:29.912Z,17.63
2023-02-08T09:57:59.143Z,17.05
2023-02-08T10:00:34.302Z,16.17
2023-02-08T10:03:02.273Z,18.45
2023-02-08T10:05:30.621Z,17.83
2023-02-08T10:07:58.552Z,18.63
2023-02-08T10:10:43.944Z,17.33
2023-02-08T10:13:41.390Z,17.80
2023-02-08T10:16:27.127Z,19.35
2023-02-08T10:19:06.550Z,18.40
2023-02-08T10:21:52.255Z,17.27
2023-02-08T10:24:49.781Z,18.55
2023-02-08T10:27:22.497Z,18.90
2023-02-08T10:30:00.232Z,16.60
2023-02-08T10:32:51.228Z,17.67
2023-02-08T10:35:26.579Z,17.35
2023-02-08T10:37:53.834Z,15.98
2023-02-08T10:40:30.263Z,18.55
2023-02-08T10:43:24.388Z,16.50
2023-02-08T10:46:12.553Z,16.98
2023-02-08T10:48:58.837Z,16.80
2023-02-08T10:51:26.036Z,16.95
2023-02-08T10:53:53.509Z,22.33
2023-02-08T10:56:35.248Z,21.13
2023-02-08T10:59:11.546Z,21.35
2023-02-08T11:01:37.856Z,18.27
2023-02-08T11:04:12.790Z,18.55
2023-02-08T11:06:41.160Z,19.05
2023-02-08T11:09:20.439Z,18.33
2023-02-08T11:11:46.939Z,17.30
2023-02-08T11:14:24.197Z,16.98
2023-02-08T11:16:52.756Z,16.55
2023-02-08T11:19:28.111Z,17.48
2023-02-08T11:21:54.615Z,15.80
2023-02-08T11:24:35.796Z,15.18
2023-02-08T11:27:02.883Z,14.70
2023-02-08T11:29:31.319Z,13.60
2023-02-08T11:32:00.989Z,14.60
2023-02-08T11:34:41.226Z,14.77
2023-02-08T11:37:20.715Z,15.45
2023-02-08T11:39:55.905Z,14.68
2023-02-08T11:42:28.817Z,13.68
2023-02-08T11:44:57.025Z,14.30
2023-02-08T11:47:30.519Z,12.88
2023-02-08T11:49:59.934Z,14.23
2023-02-08T11:52:30.731Z,15.85
2023-02-08T11:55:25.067Z,15.98
2023-02-08T11:58:14.374Z,18.35
2023-02-08T12:00:41.243Z,17.70
2023-02-08T12:03:07.503Z,22.02
2023-02-08T12:05:51.084Z,33.75
2023-02-08T12:08:28.953Z,17.58
2023-02-08T12:11:21.912Z,16.90
2023-02-08T12:14:23.879Z,14.57
2023-02-08T12:17:12.041Z,17.80
2023-02-08T12:20:08.260Z,13.02
2023-02-08T12:22:40.556Z,14.65
2023-02-08T12:25:28.606Z,12.82
2023-02-08T12:28:16.467Z,16.38
2023-02-08T12:31:24.499Z,13.10
2023-02-08T12:34:28.809Z,12.13
2023-02-08T12:37:44.960Z,11.95
2023-02-08T12:40:42.366Z,11.95
2023-02-08T12:43:19.930Z,11.55
2023-02-08T12:46:11.337Z,11.63
2023-02-08T12:51:36.196Z,10.48
2023-02-08T12:54:30.335Z,11.15
2023-02-08T12:57:02.356Z,13.30
2023-02-08T12:59:38.609Z,11.55
2023-02-08T13:02:16.013Z,10.93
2023-02-08T13:04:47.158Z,11.82
2023-02-08T13:07:19.998Z,11.20
2023-02-08T13:09:58.875Z,10.68
2023-02-08T13:12:39.918Z,11.25
2023-02-08T13:15:30.177Z,10.35
2023-02-08T13:18:04.129Z,11.52
2023-02-08T13:20:39.813Z,10.45
2023-02-08T13:23:50.594Z,9.73
2023-02-08T13:26:24.427Z,9.68
2023-02-08T13:28:53.765Z,10.30
2023-02-08T13:31:22.786Z,9.77
2023-02-08T13:34:08.079Z,9.13
2023-02-08T13:36:41.424Z,9.85
2023-02-08T13:39:26.247Z,9.32
2023-02-08T13:41:55.297Z,9.38
2023-02-08T13:44:30.488Z,9.48
2023-02-08T13:46:57.080Z,10.30
2023-02-08T13:49:43.674Z,9.02
2023-02-08T13:52:12.037Z,8.63
2023-02-08T13:54:38.657Z,9.10
2023-02-08T13:57:43.455Z,8.50
2023-02-08T14:00:20.266Z,9.05
2023-02-08T14:03:03.357Z,8.68
2023-02-08T14:05:45.121Z,12.00
2023-02-08T14:08:28.091Z,20.08
2023-02-08T14:11:13.661Z,11.38
2023-02-08T14:13:50.511Z,23.85
2023-02-08T14:16:40.029Z,10.93
2023-02-08T14:19:23.036Z,8.25
2023-02-08T14:22:04.749Z,9.48
2023-02-08T14:24:44.193Z,8.23
2023-02-08T14:27:46.053Z,8.02
2023-02-08T14:30:18.426Z,7.65
2023-02-08T14:33:04.897Z,7.15
2023-02-08T14:35:36.595Z,7.18
2023-02-08T14:38:24.470Z,7.68
2023-02-08T14:40:52.621Z,7.55
2023-02-08T14:43:18.892Z,8.85
2023-02-08T14:45:52.838Z,7.78
2023-02-08T14:48:26.312Z,7.93
2023-02-08T14:51:16.434Z,8.07
2023-02-08T14:53:55.017Z,7.65
2023-02-08T14:56:28.008Z,7.82
2023-02-08T14:58:59.318Z,6.95
2023-02-08T15:01:28.658Z,9.52
2023-02-08T15:04:01.556Z,10.55
2023-02-08T15:06:37.621Z,10.60
2023-02-08T15:09:17.637Z,11.82
2023-02-08T15:12:03.312Z,21.45
2023-02-08T15:14:33.433Z,14.20
2023-02-08T15:17:00.119Z,11.57
2023-02-08T15:19:28.300Z,12.30
2023-02-08T15:21:55.136Z,9.88
2023-02-08T15:24:29.583Z,11.48
2023-02-08T15:26:57.791Z,9.35
2023-02-08T15:29:39.113Z,9.85
2023-02-08T15:32:17.549Z,9.57
2023-02-08T15:34:46.636Z,7.95
2023-02-08T15:37:17.790Z,10.10
2023-02-08T15:42:22.746Z,22.70
2023-02-08T15:44:49.689Z,15.52
2023-02-08T15:47:25.697Z,11.05
2023-02-08T15:49:53.658Z,9.43
2023-02-08T15:52:24.329Z,8.57
2023-02-08T15:54:51.615Z,11.43
2023-02-08T15:57:36.840Z,12.07
2023-02-08T16:00:12.841Z,8.80
2023-02-08T16:02:39.240Z,11.90
2023-02-08T16:05:20.253Z,12.57
2023-02-08T16:07:47.605Z,13.40
2023-02-08T16:10:40.349Z,16.60
2023-02-08T16:13:17.870Z,11.70
2023-02-08T16:15:46.650Z,11.88
2023-02-08T16:18:46.060Z,11.02
2023-02-08T16:21:25.828Z,19.80
2023-02-08T16:23:56.506Z,14.90
2023-02-08T16:26:35.053Z,12.93
2023-02-08T16:29:04.241Z,11.75
2023-02-08T16:31:32.866Z,11.50
2023-02-08T16:34:05.816Z,10.60
2023-02-08T16:36:35.882Z,13.18
2023-02-08T16:39:22.177Z,14.30
2023-02-08T16:42:06.467Z,12.00
2023-02-08T16:45:17.014Z,12.80
2023-02-08T16:47:56.922Z,12.80
2023-02-08T16:50:27.155Z,15.10
2023-02-08T16:52:58.534Z,12.77
2023-02-08T16:57:55.730Z,12.60
2023-02-08T17:00:31.868Z,9.32
2023-02-08T17:02:58.305Z,16.33
2023-02-08T17:05:28.263Z,15.18
2023-02-08T17:07:54.880Z,13.02
2023-02-08T17:10:29.850Z,12.88
2023-02-08T17:13:09.743Z,24.73
2023-02-08T17:15:44.317Z,12.30
2023-02-08T17:18:12.371Z,10.35
2023-02-08T17:20:38.772Z,12.23
2023-02-08T17:23:05.787Z,20.98
2023-02-08T17:25:33.726Z,13.52
2023-02-08T17:28:07.353Z,11.38
2023-02-08T17:30:40.228Z,13.07
2023-02-08T17:33:07.680Z,14.80
2023-02-08T17:35:37.488Z,11.45
2023-02-08T17:38:04.821Z,10.40
2023-02-08T17:40:33.424Z,11.35
2023-02-08T17:43:00.244Z,16.08
2023-02-08T17:45:28.031Z,13.75
2023-02-08T17:47:55.810Z,13.52
2023-02-08T17:50:23.152Z,19.92
2023-02-08T17:52:49.482Z,21.55
2023-02-08T17:55:17.751Z,20.15
2023-02-08T17:57:45.225Z,19.17
2023-02-08T18:00:23.577Z,17.45
2023-02-08T18:02:52.450Z,16.45
2023-02-08T18:05:21.916Z,16.02
2023-02-08T18:07:48.515Z,16.20
2023-02-08T18:10:15.195Z,12.40
2023-02-08T18:12:42.784Z,24.60
2023-02-08T18:15:12.065Z,22.98
2023-02-08T18:17:39.427Z,14.50
2023-02-08T18:20:06.870Z,11.43
2023-02-08T18:22:33.241Z,12.57
2023-02-08T18:24:59.587Z,10.65
2023-02-08T18:27:27.025Z,9.93
2023-02-08T18:29:54.468Z,12.10
2023-02-08T18:32:21.928Z,11.00
2023-02-08T18:34:49.507Z,10.48
2023-02-08T18:37:16.388Z,11.02
2023-02-08T18:39:42.906Z,11.25
2023-02-08T18:42:09.323Z,11.90
2023-02-08T18:44:38.414Z,11.10
2023-02-08T18:47:07.134Z,11.75
2023-02-08T18:49:40.193Z,13.23
2023-02-08T18:52:15.658Z,12.02
2023-02-08T18:54:42.058Z,11.95
2023-02-08T18:57:11.341Z,11.35
2023-02-08T18:59:38.379Z,10.57
2023-02-08T19:02:06.880Z,10.68
2023-02-08T19:04:38.115Z,10.75
2023-02-08T19:07:05.291Z,11.45
2023-02-08T19:09:35.587Z,10.43
2023-02-08T19:12:01.941Z,10.93
2023-02-08T19:14:28.388Z,11.05
2023-02-08T19:16:54.728Z,13.27
2023-02-08T19:19:21.327Z,11.85
2023-02-08T19:21:47.708Z,11.77
2023-02-08T19:24:15.254Z,11.00
2023-02-08T19:26:41.839Z,10.60
2023-02-08T19:29:13.234Z,9.65
2023-02-08T19:31:40.278Z,10.88
2023-02-08T19:34:07.044Z,11.52
2023-02-08T19:36:37.534Z,9.32
2023-02-08T19:39:06.362Z,9.57
2023-02-08T19:41:38.495Z,14.30
2023-02-08T19:44:07.468Z,13.48
2023-02-08T19:46:38.607Z,13.43
2023-02-08T19:51:34.588Z,13.02
2023-02-08T19:54:02.287Z,11.43
2023-02-08T19:56:33.801Z,9.98
2023-02-08T19:59:03.766Z,9.85
2023-02-08T20:01:33.020Z,10.20
2023-02-08T20:04:00.171Z,9.77
2023-02-08T20:06:29.881Z,10.60
2023-02-08T20:08:56.234Z,10.20
2023-02-08T20:11:28.340Z,9.38
2023-02-08T20:13:57.213Z,11.18
2023-02-08T20:16:24.432Z,20.70
2023-02-08T20:18:50.868Z,13.77
2023-02-08T20:21:18.182Z,17.05
2023-02-08T20:23:45.281Z,12.15
2023-02-08T20:26:11.587Z,23.48
2023-02-08T20:28:39.973Z,26.15
2023-02-08T20:31:08.981Z,22.83
2023-02-08T20:33:35.476Z,22.98
2023-02-08T20:36:10.353Z,31.58
2023-02-08T20:38:37.652Z,22.85
2023-02-08T20:41:09.305Z,19.70
2023-02-08T20:43:36.467Z,24.17
2023-02-08T20:46:07.842Z,25.08
2023-02-08T20:48:34.646Z,34.80
2023-02-08T20:51:21.557Z,44.17
2023-02-08T20:53:49.091Z,55.22
2023-02-08T20:56:18.591Z,40.35
2023-02-08T20:58:45.719Z,34.85
2023-02-08T21:01:15.381Z,26.52
2023-02-08T21:03:42.714Z,22.00
2023-02-08T21:06:18.479Z,19.20
2023-02-08T21:08:45.686Z,20.77
2023-02-08T21:11:12.299Z,24.95
2023-02-08T21:13:38.779Z,15.80
2023-02-08T21:16:09.185Z,17.35
2023-02-08T21:18:36.456Z,19.02
2023-02-08T21:21:06.319Z,15.98
2023-02-08T21:23:33.554Z,17.88
2023-02-08T21:26:01.441Z,16.98
2023-02-08T21:28:28.194Z,16.02
2023-02-08T21:31:19.781Z,16.50
2023-02-08T21:33:46.252Z,26.00
2023-02-08T21:36:14.970Z,66.38
2023-02-08T21:38:42.086Z,65.47
2023-02-08T21:41:19.989Z,52.92
2023-02-08T21:43:47.415Z,31.85
2023-02-08T21:46:13.837Z,22.35
2023-02-08T21:48:58.785Z,22.58
2023-02-08T21:51:44.133Z,21.05
2023-02-08T21:54:31.094Z,28.65
2023-02-08T21:57:02.389Z,63.42
2023-02-08T21:59:29.449Z,32.30
2023-02-08T22:01:56.377Z,25.30
2023-02-08T22:04:22.784Z,21.20
2023-02-08T22:06:49.156Z,31.25
2023-02-08T22:09:20.329Z,30.13
2023-02-08T22:14:16.339Z,30.70
2023-02-08T22:16:42.681Z,57.88
2023-02-08T22:19:09.032Z,58.00
2023-02-08T22:21:35.482Z,46.60
2023-02-08T22:24:01.819Z,44.97
2023-02-08T22:26:28.178Z,41.22
2023-02-08T22:28:54.688Z,51.03
2023-02-08T22:31:21.631Z,43.35
2023-02-08T22:33:48.113Z,57.08
2023-02-08T22:36:14.437Z,46.05
2023-02-08T22:38:40.826Z,66.88
2023-02-08T22:41:12.093Z,28.90
2023-02-08T22:43:38.801Z,24.42
2023-02-08T22:46:05.602Z,20.05
2023-02-08T22:48:32.458Z,19.88
2023-02-08T22:50:59.184Z,24.42
2023-02-08T22:53:26.359Z,19.33
2023-02-08T22:55:56.168Z,20.50
2023-02-08T22:58:23.089Z,25.10
2023-02-08T23:00:49.608Z,23.45
2023-02-08T23:03:17.319Z,24.33
2023-02-08T23:05:45.432Z,24.35
2023-02-08T23:08:12.989Z,26.23
2023-02-08T23:10:39.912Z,25.55
2023-02-08T23:13:06.636Z,26.15
2023-02-08T23:15:33.591Z,31.02
2023-02-08T23:17:59.970Z,20.52
2023-02-08T23:20:26.733Z,22.10
2023-02-08T23:22:53.062Z,21.83
2023-02-08T23:25:19.518Z,23.02
2023-02-08T23:27:45.946Z,21.65
2023-02-08T23:30:12.734Z,18.20
2023-02-08T23:32:39.103Z,19.58
2023-02-08T23:35:05.841Z,19.75
2023-02-08T23:37:32.133Z,18.55
2023-02-08T23:39:59.206Z,19.63
2023-02-08T23:42:25.738Z,19.52
2023-02-08T23:44:57.441Z,19.63
2023-02-08T23:47:25.182Z,17.67
2023-02-08T23:49:51.706Z,18.75
2023-02-08T23:52:18.787Z,20.20
2023-02-08T23:54:45.473Z,21.20
2023-02-08T23:57:11.850Z,19.77
2023-02-08T23:59:39.074Z,20.52
